createdAt,value
2022-12-25T00:00:20.418Z,12.88
2022-12-25T00:01:18.809Z,12.34
2022-12-25T00:02:20.730Z,12.86
2022-12-25T00:03:24.382Z,11.96
2022-12-25T00:04:26.214Z,12.65
2022-12-25T00:05:28.036Z,13.03
2022-12-25T00:06:30.179Z,13.11
2022-12-25T00:07:31.995Z,12.73
2022-12-25T00:08:33.762Z,12.26
2022-12-25T00:09:35.594Z,11.66
2022-12-25T00:10:44.556Z,11.61
2022-12-25T00:11:41.006Z,11.69
2022-12-25T00:12:43.002Z,13.28
2022-12-25T00:13:44.785Z,13.28
2022-12-25T00:14:46.572Z,12.23
2022-12-25T00:15:48.376Z,11.91
2022-12-25T00:16:50.208Z,12.34
2022-12-25T00:17:52.133Z,11.69
2022-12-25T00:18:53.877Z,12.41
2022-12-25T00:19:55.669Z,12.34
2022-12-25T00:20:57.441Z,12.57
2022-12-25T00:21:59.214Z,11.88
2022-12-25T00:23:00.948Z,11.52
2022-12-25T00:24:02.722Z,12.18
2022-12-25T00:25:04.514Z,12.52
2022-12-25T00:26:06.923Z,12.33
2022-12-25T00:27:08.716Z,11.38
2022-12-25T00:28:10.632Z,11.34
2022-12-25T00:29:12.425Z,12.31
2022-12-25T00:30:15.726Z,12.54
2022-12-25T00:31:17.555Z,12.78
2022-12-25T00:32:19.395Z,12.95
2022-12-25T00:33:21.236Z,11.94
2022-12-25T00:34:23.033Z,12.69
2022-12-25T00:35:24.823Z,13.11
2022-12-25T00:36:26.598Z,12.85
2022-12-25T00:37:28.401Z,12.29
2022-12-25T00:38:30.245Z,13.14
2022-12-25T00:39:32.013Z,13.24
2022-12-25T00:40:34.103Z,12.33
2022-12-25T00:41:35.898Z,13.07
2022-12-25T00:42:37.687Z,12.95
2022-12-25T00:43:39.515Z,12.60
2022-12-25T00:44:41.298Z,13.21
2022-12-25T00:45:43.176Z,13.21
2022-12-25T00:46:45.158Z,13.24
2022-12-25T00:47:46.868Z,13.21
2022-12-25T00:48:48.699Z,12.96
2022-12-25T00:49:50.468Z,13.55
2022-12-25T00:50:52.563Z,12.57
2022-12-25T00:51:54.349Z,12.23
2022-12-25T00:52:56.159Z,13.06
2022-12-25T00:53:57.981Z,12.65
2022-12-25T00:54:59.774Z,12.91
2022-12-25T00:56:01.565Z,13.24
2022-12-25T00:57:03.359Z,13.64
2022-12-25T00:58:05.156Z,13.71
2022-12-25T00:59:07.014Z,13.77
2022-12-25T01:00:09.616Z,13.42
2022-12-25T01:01:11.470Z,13.08
2022-12-25T01:02:13.400Z,12.97
2022-12-25T01:03:15.234Z,13.05
2022-12-25T01:04:17.022Z,13.21
2022-12-25T01:05:18.828Z,12.69
2022-12-25T01:06:20.718Z,12.62
2022-12-25T01:07:22.499Z,12.51
2022-12-25T01:08:24.300Z,11.91
2022-12-25T01:09:26.130Z,12.27
2022-12-25T01:10:27.920Z,12.49
2022-12-25T01:11:29.712Z,12.58
2022-12-25T01:12:31.509Z,12.34
2022-12-25T01:13:33.301Z,12.03
2022-12-25T01:14:35.149Z,12.11
2022-12-25T01:15:36.927Z,12.87
2022-12-25T01:16:38.788Z,11.35
2022-12-25T01:17:40.620Z,12.99
2022-12-25T01:18:42.407Z,11.53
2022-12-25T01:19:44.250Z,13.16
2022-12-25T01:20:46.324Z,12.67
2022-12-25T01:21:48.127Z,12.47
2022-12-25T01:22:49.935Z,12.43
2022-12-25T01:23:51.715Z,12.70
2022-12-25T01:24:53.555Z,12.97
2022-12-25T01:25:55.337Z,13.10
2022-12-25T01:26:57.253Z,13.07
2022-12-25T01:27:59.048Z,12.46
2022-12-25T01:29:00.833Z,13.24
2022-12-25T01:30:02.731Z,13.02
2022-12-25T01:31:04.552Z,13.63
2022-12-25T01:32:06.392Z,12.99
2022-12-25T01:33:08.121Z,13.35
2022-12-25T01:34:09.899Z,13.26
2022-12-25T01:35:11.719Z,13.47
2022-12-25T01:36:13.901Z,13.25
2022-12-25T01:37:15.687Z,13.34
2022-12-25T01:38:17.463Z,12.41
2022-12-25T01:39:19.240Z,12.77
2022-12-25T01:40:21.192Z,12.09
2022-12-25T01:41:22.976Z,12.32
2022-12-25T01:42:24.775Z,12.67
2022-12-25T01:43:26.558Z,12.57
2022-12-25T01:44:28.477Z,13.11
2022-12-25T01:45:30.445Z,13.50
2022-12-25T01:46:32.574Z,12.99
2022-12-25T01:47:34.368Z,13.26
2022-12-25T01:48:36.149Z,13.04
2022-12-25T01:49:37.944Z,13.44
2022-12-25T01:50:39.851Z,13.57
2022-12-25T01:51:41.716Z,12.26
2022-12-25T01:52:43.486Z,12.91
2022-12-25T01:53:45.267Z,13.41
2022-12-25T01:54:47.048Z,12.87
2022-12-25T01:55:48.893Z,13.31
2022-12-25T01:56:50.685Z,12.83
2022-12-25T01:57:52.465Z,13.30
2022-12-25T01:58:54.253Z,13.64
2022-12-25T01:59:56.045Z,12.05
2022-12-25T02:00:58.015Z,12.81
2022-12-25T02:02:00.011Z,14.59
2022-12-25T02:03:03.118Z,14.94
2022-12-25T02:04:04.928Z,13.93
2022-12-25T02:05:06.705Z,13.91
2022-12-25T02:06:09.137Z,14.76
2022-12-25T02:07:10.913Z,15.43
2022-12-25T02:08:12.744Z,15.29
2022-12-25T02:09:14.512Z,14.74
2022-12-25T02:10:16.709Z,14.92
2022-12-25T02:11:18.517Z,14.40
2022-12-25T02:12:20.316Z,14.61
2022-12-25T02:13:22.114Z,14.27
2022-12-25T02:14:23.889Z,15.78
2022-12-25T02:15:25.682Z,15.63
2022-12-25T02:16:27.953Z,17.37
2022-12-25T02:17:29.771Z,18.34
2022-12-25T02:18:31.587Z,18.93
2022-12-25T02:19:33.413Z,21.04
2022-12-25T02:20:35.323Z,21.53
2022-12-25T02:21:37.160Z,21.84
2022-12-25T02:22:38.981Z,20.93
2022-12-25T02:23:41.080Z,19.97
2022-12-25T02:24:42.907Z,20.29
2022-12-25T02:25:44.704Z,19.05
2022-12-25T02:26:46.567Z,17.91
2022-12-25T02:27:48.371Z,18.59
2022-12-25T02:28:50.188Z,18.72
2022-12-25T02:29:51.997Z,19.34
2022-12-25T02:30:53.908Z,19.59
2022-12-25T02:31:55.886Z,19.82
2022-12-25T02:32:57.754Z,20.95
2022-12-25T02:33:59.559Z,19.92
2022-12-25T02:35:02.184Z,21.13
2022-12-25T02:36:03.986Z,19.95
2022-12-25T02:37:05.839Z,20.01
2022-12-25T02:38:07.658Z,20.00
2022-12-25T02:39:09.462Z,21.36
2022-12-25T02:40:11.590Z,22.21
2022-12-25T02:41:13.409Z,22.21
2022-12-25T02:42:15.256Z,21.37
2022-12-25T02:43:17.065Z,21.41
2022-12-25T02:44:18.870Z,20.99
2022-12-25T02:45:20.694Z,21.47
2022-12-25T02:46:22.756Z,22.78
2022-12-25T02:47:24.772Z,23.03
2022-12-25T02:48:26.590Z,24.20
2022-12-25T02:49:28.415Z,24.40
2022-12-25T02:50:30.324Z,21.27
2022-12-25T02:51:32.224Z,23.39
2022-12-25T02:52:34.089Z,23.01
2022-12-25T02:53:35.896Z,21.85
2022-12-25T02:54:37.720Z,23.47
2022-12-25T02:55:39.520Z,23.96
2022-12-25T02:56:41.350Z,23.69
2022-12-25T02:57:43.220Z,21.79
2022-12-25T02:58:45.018Z,23.43
2022-12-25T02:59:46.855Z,21.88
2022-12-25T03:00:48.765Z,22.03
2022-12-25T03:01:50.600Z,22.96
2022-12-25T03:02:53.504Z,24.17
2022-12-25T03:03:55.261Z,22.95
2022-12-25T03:04:57.070Z,23.13
2022-12-25T03:05:58.878Z,23.25
2022-12-25T03:07:01.019Z,21.82
2022-12-25T03:08:02.856Z,20.96
2022-12-25T03:09:04.669Z,22.01
2022-12-25T03:10:07.206Z,22.37
2022-12-25T03:11:09.029Z,22.56
2022-12-25T03:12:10.827Z,21.81
2022-12-25T03:13:12.679Z,21.82
2022-12-25T03:14:14.484Z,22.29
2022-12-25T03:15:16.310Z,22.20
2022-12-25T03:16:19.631Z,22.02
2022-12-25T03:17:21.476Z,21.71
2022-12-25T03:18:23.395Z,21.06
2022-12-25T03:19:25.202Z,21.07
2022-12-25T03:20:27.223Z,21.47
2022-12-25T03:21:29.040Z,23.49
2022-12-25T03:22:30.846Z,21.65
2022-12-25T03:23:32.691Z,23.73
2022-12-25T03:24:34.504Z,22.61
2022-12-25T03:25:36.321Z,24.25
2022-12-25T03:26:38.139Z,22.54
2022-12-25T03:27:39.941Z,22.11
2022-12-25T03:28:41.804Z,22.17
2022-12-25T03:29:43.611Z,22.56
2022-12-25T03:30:45.483Z,21.46
2022-12-25T03:31:47.272Z,22.07
2022-12-25T03:32:49.083Z,22.40
2022-12-25T03:33:51.048Z,21.29
2022-12-25T03:34:52.873Z,21.66
2022-12-25T03:35:54.673Z,21.96
2022-12-25T03:36:56.498Z,23.35
2022-12-25T03:37:58.295Z,21.61
2022-12-25T03:39:00.170Z,22.61
2022-12-25T03:40:02.055Z,21.87
2022-12-25T03:41:03.874Z,21.96
2022-12-25T03:42:05.692Z,21.77
2022-12-25T03:43:07.498Z,21.52
2022-12-25T03:44:09.370Z,21.13
2022-12-25T03:45:11.167Z,23.74
2022-12-25T03:46:13.325Z,24.50
2022-12-25T03:47:15.203Z,23.84
2022-12-25T03:48:17.002Z,24.11
2022-12-25T03:49:18.892Z,24.40
2022-12-25T03:50:20.705Z,24.42
2022-12-25T03:51:22.519Z,24.97
2022-12-25T03:52:24.348Z,23.35
2022-12-25T03:53:26.181Z,23.34
2022-12-25T03:54:28.039Z,25.19
2022-12-25T03:55:29.850Z,23.22
2022-12-25T03:56:31.766Z,24.93
2022-12-25T03:57:33.565Z,23.00
2022-12-25T03:58:35.376Z,25.31
2022-12-25T03:59:37.247Z,27.92
2022-12-25T04:00:39.065Z,24.28
2022-12-25T04:01:40.974Z,22.32
2022-12-25T04:02:43.009Z,23.41
2022-12-25T04:03:45.105Z,20.41
2022-12-25T04:04:47.012Z,21.14
2022-12-25T04:05:48.844Z,21.99
2022-12-25T04:06:50.769Z,22.37
2022-12-25T04:07:52.552Z,24.01
2022-12-25T04:08:54.361Z,22.44
2022-12-25T04:09:56.215Z,21.97
2022-12-25T04:10:58.030Z,22.15
2022-12-25T04:12:02.817Z,24.21
2022-12-25T04:13:03.448Z,25.28
2022-12-25T04:14:05.259Z,28.37
2022-12-25T04:15:07.107Z,31.81
2022-12-25T04:16:09.801Z,30.94
2022-12-25T04:17:11.650Z,32.88
2022-12-25T04:18:13.457Z,30.59
2022-12-25T04:19:15.267Z,28.47
2022-12-25T04:20:17.140Z,26.26
2022-12-25T04:21:18.950Z,24.04
2022-12-25T04:22:20.779Z,23.25
2022-12-25T04:23:22.576Z,23.21
2022-12-25T04:24:24.392Z,22.45
2022-12-25T04:25:26.231Z,21.69
2022-12-25T04:26:28.053Z,21.41
2022-12-25T04:27:29.860Z,22.24
2022-12-25T04:28:31.685Z,22.27
2022-12-25T04:29:33.472Z,21.82
2022-12-25T04:30:35.425Z,21.55
2022-12-25T04:31:37.261Z,20.81
2022-12-25T04:32:39.360Z,22.03
2022-12-25T04:33:41.154Z,22.13
2022-12-25T04:34:42.927Z,21.94
2022-12-25T04:35:44.821Z,22.41
2022-12-25T04:36:46.599Z,20.69
2022-12-25T04:37:48.403Z,20.85
2022-12-25T04:38:50.190Z,20.41
2022-12-25T04:39:51.970Z,21.56
2022-12-25T04:40:53.892Z,23.54
2022-12-25T04:41:55.663Z,22.05
2022-12-25T04:42:57.451Z,21.13
2022-12-25T04:43:59.244Z,21.31
2022-12-25T04:45:01.043Z,21.10
2022-12-25T04:46:02.927Z,20.78
2022-12-25T04:47:10.986Z,22.62
2022-12-25T04:48:08.330Z,20.75
2022-12-25T04:49:10.121Z,22.15
2022-12-25T04:50:12.717Z,22.41
2022-12-25T04:51:14.612Z,20.76
2022-12-25T04:52:16.379Z,22.29
2022-12-25T04:53:18.162Z,21.23
2022-12-25T04:54:19.962Z,20.95
2022-12-25T04:55:21.757Z,21.23
2022-12-25T04:56:23.616Z,20.15
2022-12-25T04:57:25.362Z,19.81
2022-12-25T04:58:27.138Z,20.11
2022-12-25T04:59:28.941Z,18.60
2022-12-25T05:00:30.839Z,18.93
2022-12-25T05:01:32.728Z,18.34
2022-12-25T05:02:34.757Z,18.29
2022-12-25T05:03:36.655Z,19.45
2022-12-25T05:04:38.521Z,20.98
2022-12-25T05:05:40.309Z,20.82
2022-12-25T05:06:42.301Z,22.05
2022-12-25T05:07:44.080Z,21.76
2022-12-25T05:08:45.866Z,21.23
2022-12-25T05:09:47.659Z,20.95
2022-12-25T05:10:49.479Z,20.83
2022-12-25T05:11:51.336Z,21.08
2022-12-25T05:12:53.084Z,21.36
2022-12-25T05:13:54.854Z,21.18
2022-12-25T05:14:56.956Z,22.09
2022-12-25T05:15:58.830Z,21.65
2022-12-25T05:17:00.671Z,21.16
2022-12-25T05:18:02.462Z,21.76
2022-12-25T05:19:04.266Z,20.44
2022-12-25T05:20:06.482Z,20.88
2022-12-25T05:21:08.238Z,22.76
2022-12-25T05:22:10.094Z,22.13
2022-12-25T05:23:11.880Z,24.29
2022-12-25T05:24:13.663Z,23.56
2022-12-25T05:25:15.445Z,22.83
2022-12-25T05:26:17.223Z,24.03
2022-12-25T05:27:19.068Z,22.68
2022-12-25T05:28:20.857Z,24.77
2022-12-25T05:29:22.631Z,24.11
2022-12-25T05:30:24.717Z,23.66
2022-12-25T05:31:26.570Z,23.59
2022-12-25T05:32:28.346Z,25.09
2022-12-25T05:33:30.189Z,24.85
2022-12-25T05:34:31.929Z,23.95
2022-12-25T05:35:33.729Z,23.73
2022-12-25T05:36:35.547Z,22.89
2022-12-25T05:37:37.354Z,25.54
2022-12-25T05:38:39.134Z,25.11
2022-12-25T05:39:40.922Z,23.91
2022-12-25T05:40:42.719Z,35.76
2022-12-25T05:41:44.519Z,27.61
2022-12-25T05:42:46.349Z,23.51
2022-12-25T05:43:48.146Z,23.03
2022-12-25T05:44:49.918Z,22.79
2022-12-25T05:45:51.698Z,22.33
2022-12-25T05:46:53.649Z,22.80
2022-12-25T05:47:55.436Z,22.81
2022-12-25T05:48:57.209Z,24.20
2022-12-25T05:49:58.997Z,22.86
2022-12-25T05:51:00.885Z,22.37
2022-12-25T05:52:02.688Z,23.22
2022-12-25T05:53:08.394Z,21.86
2022-12-25T05:54:08.146Z,23.90
2022-12-25T05:55:10.049Z,22.14
2022-12-25T05:56:12.139Z,23.89
2022-12-25T05:57:13.915Z,23.64
2022-12-25T05:58:15.742Z,23.21
2022-12-25T05:59:17.525Z,23.48
2022-12-25T06:00:19.926Z,23.02
2022-12-25T06:01:21.760Z,22.40
2022-12-25T06:02:23.674Z,23.22
2022-12-25T06:03:25.682Z,23.01
2022-12-25T06:04:27.518Z,23.49
2022-12-25T06:05:29.331Z,23.11
2022-12-25T06:06:31.315Z,24.81
2022-12-25T06:07:33.099Z,23.48
2022-12-25T06:08:34.973Z,22.20
2022-12-25T06:09:36.769Z,22.68
2022-12-25T06:10:38.664Z,24.34
2022-12-25T06:11:40.452Z,23.81
2022-12-25T06:12:42.255Z,26.55
2022-12-25T06:13:44.086Z,27.13
2022-12-25T06:14:45.892Z,26.28
2022-12-25T06:15:47.670Z,25.32
2022-12-25T06:16:49.604Z,24.25
2022-12-25T06:17:51.381Z,24.51
2022-12-25T06:18:53.248Z,25.79
2022-12-25T06:19:55.046Z,25.46
2022-12-25T06:20:56.831Z,24.17
2022-12-25T06:21:58.625Z,25.14
2022-12-25T06:23:00.413Z,23.25
2022-12-25T06:24:02.434Z,26.04
2022-12-25T06:25:04.310Z,23.73
2022-12-25T06:26:06.503Z,23.93
2022-12-25T06:27:08.300Z,24.11
2022-12-25T06:28:10.076Z,24.33
2022-12-25T06:29:11.926Z,23.63
2022-12-25T06:30:13.812Z,24.91
2022-12-25T06:31:15.864Z,28.47
2022-12-25T06:32:17.682Z,27.87
2022-12-25T06:33:19.479Z,23.74
2022-12-25T06:34:21.315Z,25.44
2022-12-25T06:35:23.101Z,28.80
2022-12-25T06:36:24.896Z,26.23
2022-12-25T06:37:26.674Z,25.80
2022-12-25T06:38:28.501Z,24.66
2022-12-25T06:39:30.355Z,24.62
2022-12-25T06:40:32.230Z,24.47
2022-12-25T06:41:34.015Z,25.07
2022-12-25T06:42:35.810Z,23.95
2022-12-25T06:43:37.652Z,24.41
2022-12-25T06:44:39.531Z,25.34
2022-12-25T06:45:41.316Z,24.49
2022-12-25T06:46:43.124Z,25.85
2022-12-25T06:47:44.913Z,25.40
2022-12-25T06:48:46.741Z,24.44
2022-12-25T06:49:48.585Z,24.27
2022-12-25T06:50:50.399Z,25.09
2022-12-25T06:51:52.206Z,23.85
2022-12-25T06:52:54.023Z,25.81
2022-12-25T06:53:56.348Z,28.93
2022-12-25T06:54:58.268Z,29.07
2022-12-25T06:56:00.109Z,29.50
2022-12-25T06:57:01.883Z,29.10
2022-12-25T06:58:03.713Z,28.15
2022-12-25T06:59:05.529Z,25.47
2022-12-25T07:00:07.682Z,27.35
2022-12-25T07:01:09.558Z,29.37
2022-12-25T07:02:11.522Z,26.75
2022-12-25T07:03:13.397Z,28.41
2022-12-25T07:04:15.246Z,26.26
2022-12-25T07:05:17.115Z,25.53
2022-12-25T07:06:18.949Z,25.13
2022-12-25T07:07:20.780Z,26.88
2022-12-25T07:08:22.561Z,27.67
2022-12-25T07:09:24.376Z,35.25
2022-12-25T07:10:26.252Z,33.39
2022-12-25T07:11:28.073Z,31.39
2022-12-25T07:12:29.881Z,32.72
2022-12-25T07:13:31.689Z,30.97
2022-12-25T07:14:33.504Z,32.43
2022-12-25T07:15:35.354Z,36.27
2022-12-25T07:16:37.268Z,33.60
2022-12-25T07:17:39.103Z,32.82
2022-12-25T07:18:40.927Z,33.05
2022-12-25T07:19:45.134Z,32.77
2022-12-25T07:20:46.447Z,30.41
2022-12-25T07:21:48.281Z,32.19
2022-12-25T07:22:50.080Z,30.66
2022-12-25T07:23:51.909Z,31.06
2022-12-25T07:24:53.707Z,29.44
2022-12-25T07:25:55.619Z,30.89
2022-12-25T07:26:57.544Z,27.58
2022-12-25T07:27:59.351Z,26.69
2022-12-25T07:29:01.174Z,26.89
2022-12-25T07:30:02.979Z,26.06
2022-12-25T07:31:04.843Z,25.56
2022-12-25T07:32:06.750Z,26.76
2022-12-25T07:33:08.553Z,27.31
2022-12-25T07:34:10.416Z,27.46
2022-12-25T07:35:12.242Z,25.84
2022-12-25T07:36:14.201Z,27.73
2022-12-25T07:37:16.003Z,25.89
2022-12-25T07:38:17.804Z,25.91
2022-12-25T07:39:19.620Z,27.05
2022-12-25T07:40:21.451Z,28.93
2022-12-25T07:41:23.422Z,28.73
2022-12-25T07:42:25.646Z,30.85
2022-12-25T07:43:27.579Z,29.28
2022-12-25T07:44:29.386Z,29.28
2022-12-25T07:45:31.217Z,31.21
2022-12-25T07:46:33.484Z,31.05
2022-12-25T07:47:35.390Z,31.74
2022-12-25T07:48:37.239Z,32.31
2022-12-25T07:49:39.036Z,31.24
2022-12-25T07:50:40.866Z,37.36
2022-12-25T07:51:42.710Z,33.90
2022-12-25T07:52:44.557Z,31.44
2022-12-25T07:53:46.385Z,28.59
2022-12-25T07:54:48.215Z,26.88
2022-12-25T07:55:50.025Z,26.67
2022-12-25T07:56:52.014Z,26.79
2022-12-25T07:57:53.833Z,27.67
2022-12-25T07:58:55.651Z,28.13
2022-12-25T07:59:57.472Z,27.00
2022-12-25T08:00:59.479Z,26.43
2022-12-25T08:02:01.500Z,27.37
2022-12-25T08:03:03.814Z,27.49
2022-12-25T08:04:05.818Z,27.71
2022-12-25T08:05:07.711Z,28.31
2022-12-25T08:06:10.632Z,28.26
2022-12-25T08:07:12.485Z,28.51
2022-12-25T08:08:14.311Z,28.20
2022-12-25T08:09:16.129Z,28.56
2022-12-25T08:10:18.046Z,26.44
2022-12-25T08:11:19.857Z,25.23
2022-12-25T08:12:21.864Z,27.07
2022-12-25T08:13:23.722Z,28.35
2022-12-25T08:14:25.516Z,27.67
2022-12-25T08:15:27.332Z,26.13
2022-12-25T08:16:29.273Z,26.76
2022-12-25T08:17:31.195Z,27.93
2022-12-25T08:18:33.002Z,25.42
2022-12-25T08:19:34.825Z,25.65
2022-12-25T08:20:36.677Z,28.11
2022-12-25T08:21:38.498Z,27.18
2022-12-25T08:22:40.330Z,28.61
2022-12-25T08:23:42.149Z,27.45
2022-12-25T08:24:43.950Z,27.47
2022-12-25T08:25:45.780Z,24.90
2022-12-25T08:26:47.697Z,25.04
2022-12-25T08:27:49.738Z,25.74
2022-12-25T08:28:51.537Z,26.35
2022-12-25T08:29:53.375Z,27.59
2022-12-25T08:30:55.360Z,26.50
2022-12-25T08:31:57.188Z,27.29
2022-12-25T08:32:59.046Z,27.62
2022-12-25T08:34:00.898Z,27.49
2022-12-25T08:35:02.735Z,25.94
2022-12-25T08:36:04.518Z,26.25
2022-12-25T08:37:06.346Z,26.05
2022-12-25T08:38:08.282Z,26.88
2022-12-25T08:39:10.096Z,27.44
2022-12-25T08:40:12.883Z,27.64
2022-12-25T08:41:14.663Z,26.84
2022-12-25T08:42:16.483Z,26.22
2022-12-25T08:43:18.364Z,29.74
2022-12-25T08:44:20.189Z,28.53
2022-12-25T08:45:22.030Z,27.02
2022-12-25T08:46:23.892Z,26.71
2022-12-25T08:47:25.798Z,27.36
2022-12-25T08:48:27.624Z,27.31
2022-12-25T08:49:29.440Z,27.31
2022-12-25T08:50:31.583Z,27.07
2022-12-25T08:51:33.484Z,28.29
2022-12-25T08:52:35.284Z,26.32
2022-12-25T08:53:37.127Z,28.01
2022-12-25T08:54:38.964Z,27.24
2022-12-25T08:55:40.750Z,28.64
2022-12-25T08:56:42.545Z,28.44
2022-12-25T08:57:44.401Z,30.85
2022-12-25T08:58:46.470Z,27.47
2022-12-25T08:59:48.357Z,27.65
2022-12-25T09:00:50.564Z,26.49
2022-12-25T09:01:52.519Z,26.32
2022-12-25T09:02:54.663Z,27.27
2022-12-25T09:03:56.538Z,27.24
2022-12-25T09:04:58.342Z,27.39
2022-12-25T09:06:00.198Z,25.34
2022-12-25T09:07:02.156Z,25.81
2022-12-25T09:08:04.031Z,25.24
2022-12-25T09:09:05.867Z,26.20
2022-12-25T09:10:08.747Z,25.79
2022-12-25T09:11:10.583Z,24.78
2022-12-25T09:12:12.370Z,23.86
2022-12-25T09:13:14.184Z,23.97
2022-12-25T09:14:16.133Z,24.95
2022-12-25T09:15:17.979Z,22.41
2022-12-25T09:16:20.327Z,23.39
2022-12-25T09:17:22.270Z,24.98
2022-12-25T09:18:24.129Z,24.79
2022-12-25T09:19:25.938Z,24.70
2022-12-25T09:20:27.724Z,26.13
2022-12-25T09:21:29.530Z,25.51
2022-12-25T09:22:32.678Z,25.04
2022-12-25T09:23:34.491Z,23.80
2022-12-25T09:24:36.370Z,26.31
2022-12-25T09:25:38.165Z,24.07
2022-12-25T09:26:40.106Z,26.59
2022-12-25T09:27:41.929Z,25.83
2022-12-25T09:28:50.318Z,25.50
2022-12-25T09:29:47.396Z,26.54
2022-12-25T09:30:49.340Z,25.97
2022-12-25T09:31:51.097Z,26.01
2022-12-25T09:32:52.888Z,24.55
2022-12-25T09:33:54.687Z,24.41
2022-12-25T09:34:56.654Z,24.84
2022-12-25T09:35:58.458Z,23.99
2022-12-25T09:37:00.381Z,24.44
2022-12-25T09:38:02.169Z,24.06
2022-12-25T09:39:03.971Z,24.54
2022-12-25T09:40:06.004Z,23.83
2022-12-25T09:41:07.817Z,26.06
2022-12-25T09:42:09.666Z,28.19
2022-12-25T09:43:11.427Z,27.44
2022-12-25T09:44:13.249Z,28.59
2022-12-25T09:45:15.104Z,28.91
2022-12-25T09:46:17.941Z,28.95
2022-12-25T09:47:20.729Z,28.83
2022-12-25T09:48:22.560Z,29.72
2022-12-25T09:49:24.345Z,28.11
2022-12-25T09:50:26.194Z,30.29
2022-12-25T09:51:27.989Z,28.32
2022-12-25T09:52:29.790Z,30.81
2022-12-25T09:53:31.577Z,29.29
2022-12-25T09:54:33.410Z,30.02
2022-12-25T09:55:35.230Z,25.82
2022-12-25T09:56:37.104Z,23.19
2022-12-25T09:57:38.917Z,24.83
2022-12-25T09:58:40.721Z,23.37
2022-12-25T09:59:42.526Z,23.33
2022-12-25T10:00:44.404Z,22.51
2022-12-25T10:01:46.223Z,23.33
2022-12-25T10:02:48.197Z,24.72
2022-12-25T10:03:50.188Z,25.73
2022-12-25T10:04:51.989Z,23.90
2022-12-25T10:05:53.814Z,25.61
2022-12-25T10:06:55.741Z,27.23
2022-12-25T10:07:57.525Z,26.09
2022-12-25T10:08:59.295Z,24.66
2022-12-25T10:10:01.080Z,25.01
2022-12-25T10:11:02.923Z,25.34
2022-12-25T10:12:04.700Z,24.81
2022-12-25T10:13:06.492Z,24.56
2022-12-25T10:14:08.406Z,25.05
2022-12-25T10:15:10.204Z,25.95
2022-12-25T10:16:13.264Z,24.75
2022-12-25T10:17:15.018Z,23.97
2022-12-25T10:18:16.802Z,24.23
2022-12-25T10:19:18.627Z,23.77
2022-12-25T10:20:20.663Z,23.40
2022-12-25T10:21:22.490Z,24.17
2022-12-25T10:22:24.274Z,23.35
2022-12-25T10:23:26.123Z,23.93
2022-12-25T10:24:27.919Z,26.19
2022-12-25T10:25:29.739Z,24.28
2022-12-25T10:26:31.661Z,27.26
2022-12-25T10:27:33.461Z,26.79
2022-12-25T10:28:35.295Z,25.69
2022-12-25T10:29:37.071Z,26.44
2022-12-25T10:30:38.963Z,26.08
2022-12-25T10:31:40.899Z,27.03
2022-12-25T10:32:42.802Z,26.09
2022-12-25T10:33:44.577Z,28.34
2022-12-25T10:34:46.361Z,28.82
2022-12-25T10:35:48.151Z,28.16
2022-12-25T10:36:50.007Z,26.51
2022-12-25T10:37:51.807Z,26.69
2022-12-25T10:38:53.590Z,28.30
2022-12-25T10:39:55.424Z,27.70
2022-12-25T10:40:57.321Z,27.01
2022-12-25T10:41:59.174Z,27.68
2022-12-25T10:43:00.941Z,27.81
2022-12-25T10:44:02.755Z,26.95
2022-12-25T10:45:04.553Z,28.39
2022-12-25T10:46:06.660Z,28.36
2022-12-25T10:47:08.495Z,27.67
2022-12-25T10:48:10.281Z,28.74
2022-12-25T10:49:12.213Z,27.61
2022-12-25T10:50:14.162Z,27.91
2022-12-25T10:51:15.924Z,29.09
2022-12-25T10:52:17.783Z,28.79
2022-12-25T10:53:19.995Z,29.38
2022-12-25T10:54:22.038Z,29.51
2022-12-25T10:55:28.734Z,30.03
2022-12-25T10:56:27.446Z,29.63
2022-12-25T10:57:29.311Z,30.16
2022-12-25T10:58:31.169Z,30.14
2022-12-25T10:59:32.958Z,30.07
2022-12-25T11:00:34.866Z,30.51
2022-12-25T11:01:36.808Z,31.74
2022-12-25T11:02:39.035Z,30.61
2022-12-25T11:03:40.995Z,29.89
2022-12-25T11:04:42.731Z,27.95
2022-12-25T11:05:44.520Z,30.18
2022-12-25T11:06:46.747Z,28.87
2022-12-25T11:07:49.024Z,28.74
2022-12-25T11:08:50.866Z,30.91
2022-12-25T11:09:52.680Z,29.84
2022-12-25T11:10:54.495Z,30.49
2022-12-25T11:11:56.314Z,28.87
2022-12-25T11:12:58.190Z,28.77
2022-12-25T11:14:00.024Z,31.42
2022-12-25T11:15:01.921Z,29.43
2022-12-25T11:16:03.959Z,30.27
2022-12-25T11:17:05.738Z,30.72
2022-12-25T11:18:07.644Z,30.97
2022-12-25T11:19:09.472Z,30.15
2022-12-25T11:20:12.742Z,30.34
2022-12-25T11:21:14.571Z,30.88
2022-12-25T11:22:16.417Z,30.39
2022-12-25T11:23:18.301Z,30.67
2022-12-25T11:24:20.116Z,29.56
2022-12-25T11:25:21.905Z,30.11
2022-12-25T11:26:23.741Z,29.64
2022-12-25T11:27:25.558Z,31.82
2022-12-25T11:28:27.425Z,30.90
2022-12-25T11:29:29.226Z,32.11
2022-12-25T11:30:31.409Z,29.25
2022-12-25T11:31:33.262Z,29.62
2022-12-25T11:32:35.153Z,30.42
2022-12-25T11:33:37.032Z,29.50
2022-12-25T11:34:38.853Z,30.24
2022-12-25T11:35:40.655Z,29.84
2022-12-25T11:36:42.469Z,30.91
2022-12-25T11:37:44.274Z,31.90
2022-12-25T11:38:46.362Z,31.97
2022-12-25T11:39:48.149Z,32.40
2022-12-25T11:40:50.090Z,30.70
2022-12-25T11:41:51.933Z,30.88
2022-12-25T11:42:53.768Z,30.23
2022-12-25T11:43:55.592Z,29.76
2022-12-25T11:44:57.536Z,29.67
2022-12-25T11:45:59.387Z,29.17
2022-12-25T11:47:01.262Z,29.53
2022-12-25T11:48:03.123Z,29.43
2022-12-25T11:49:05.110Z,29.45
2022-12-25T11:50:07.616Z,30.48
2022-12-25T11:51:09.598Z,29.88
2022-12-25T11:52:11.423Z,30.81
2022-12-25T11:53:13.240Z,29.61
2022-12-25T11:54:15.104Z,31.44
2022-12-25T11:55:16.945Z,30.73
2022-12-25T11:56:18.736Z,29.46
2022-12-25T11:57:20.571Z,29.93
2022-12-25T11:58:22.381Z,29.71
2022-12-25T11:59:24.268Z,28.19
2022-12-25T12:00:26.086Z,30.95
2022-12-25T12:01:27.936Z,29.87
2022-12-25T12:02:30.031Z,31.33
2022-12-25T12:03:32.119Z,28.07
2022-12-25T12:04:41.984Z,28.29
2022-12-25T12:05:37.721Z,28.94
2022-12-25T12:06:39.772Z,28.75
2022-12-25T12:07:41.589Z,28.83
2022-12-25T12:08:43.433Z,28.70
2022-12-25T12:09:45.291Z,29.52
2022-12-25T12:10:47.229Z,29.49
2022-12-25T12:11:49.034Z,29.50
2022-12-25T12:12:50.851Z,30.73
2022-12-25T12:13:52.659Z,30.49
2022-12-25T12:14:54.541Z,29.42
2022-12-25T12:15:56.423Z,29.79
2022-12-25T12:16:58.483Z,31.01
2022-12-25T12:18:00.439Z,29.83
2022-12-25T12:19:02.269Z,28.64
2022-12-25T12:20:04.290Z,29.42
2022-12-25T12:21:06.143Z,29.33
2022-12-25T12:22:07.969Z,28.71
2022-12-25T12:23:09.795Z,28.51
2022-12-25T12:24:11.644Z,28.17
2022-12-25T12:25:13.476Z,27.68
2022-12-25T12:26:15.613Z,28.43
2022-12-25T12:27:17.423Z,29.18
2022-12-25T12:28:19.246Z,28.69
2022-12-25T12:29:21.077Z,28.00
2022-12-25T12:30:23.099Z,28.44
2022-12-25T12:31:24.915Z,28.46
2022-12-25T12:32:26.718Z,29.67
2022-12-25T12:33:28.571Z,30.09
2022-12-25T12:34:30.384Z,30.66
2022-12-25T12:35:32.283Z,29.94
2022-12-25T12:36:36.430Z,29.27
2022-12-25T12:37:37.951Z,29.86
2022-12-25T12:38:39.797Z,30.00
2022-12-25T12:39:41.610Z,31.17
2022-12-25T12:40:43.563Z,30.33
2022-12-25T12:41:45.409Z,28.55
2022-12-25T12:42:47.205Z,29.64
2022-12-25T12:43:49.012Z,29.87
2022-12-25T12:44:50.820Z,28.27
2022-12-25T12:45:52.725Z,30.71
2022-12-25T12:46:54.504Z,30.48
2022-12-25T12:47:56.301Z,32.11
2022-12-25T12:48:58.123Z,29.54
2022-12-25T12:49:59.964Z,29.19
2022-12-25T12:51:01.843Z,28.91
2022-12-25T12:52:03.657Z,28.44
2022-12-25T12:53:05.578Z,28.47
2022-12-25T12:54:07.410Z,28.30
2022-12-25T12:55:09.246Z,30.01
2022-12-25T12:56:11.640Z,28.65
2022-12-25T12:57:13.482Z,28.59
2022-12-25T12:58:15.304Z,27.54
2022-12-25T12:59:17.116Z,27.18
2022-12-25T13:00:19.545Z,28.84
2022-12-25T13:01:21.624Z,27.19
2022-12-25T13:02:23.828Z,26.59
2022-12-25T13:03:25.744Z,26.79
2022-12-25T13:04:27.627Z,26.32
2022-12-25T13:05:34.452Z,26.79
2022-12-25T13:06:33.261Z,25.36
2022-12-25T13:07:35.104Z,25.51
2022-12-25T13:08:36.921Z,26.24
2022-12-25T13:09:38.759Z,26.52
2022-12-25T13:10:40.602Z,26.86
2022-12-25T13:11:42.447Z,25.93
2022-12-25T13:12:44.261Z,26.03
2022-12-25T13:13:46.087Z,26.17
2022-12-25T13:14:47.992Z,25.56
2022-12-25T13:15:49.804Z,26.05
2022-12-25T13:16:51.822Z,26.47